3D2

Ephraim-Gibraltar Airport

Ephraim, Wisconsin, USA
METAR K3D2 192155Z AUTO 13003KT 10SM BKN100 BKN120 14/13 A3005 RMK AO2 T01420125
Observed Flight Rules
Sep-19 @ 21:55 UTC (3 hours ago) Visual Flight Rules
Wind Visibility Clouds
130° at 3 knots 10 miles
  • Broken at 10,000' AGL
  • Broken at 12,000' AGL
Temperatures Readings
Current 14°C / 57°F
Dewpoint 13°C / 55°F
Humidity 94%
Altimeter 30.05" Hg
Pressure 1018 hPa
Elevation 234
METAR K3D2 192155Z AUTO 13003KT 10SM BKN100 BKN120 14/13 A3005 RMK AO2 T01420125
Observed Flight Rules
Sep-19 @ 21:55 UTC
(3 hours ago)
VFR
Wind Visibility
130° at 3 knots 10 miles
Clouds
  • Broken at 10,000' AGL
  • Broken at 12,000' AGL
Temperature Dewpoint
14°C / 57°F 13°C / 55°F
Humidity Altimeter Pressure
94% 30.05" Hg 1018 hPa